Terminal Aerodrome Forecast
Issued by NWS

Home | Current Version | Previous Version | Text Only | Print | Product List | Glossary On
Versions: 1 2 3 4 5 6 7 8 9 10 11 12 13 14 15
000
FTUS45 KABQ 272300
TAFTCC
TAF
KTCC 272324Z 2800/2824 22014G21KT P6SM FEW070
     FM280200 25008KT P6SM SCT070
     FM281000 02006KT P6SM SKC
     FM281900 20011KT P6SM SKC=

USA.gov is the U.S. government's official web portal to all federal, state and local government web resources and services.